createdAt,value
2022-10-11T00:02:03.077Z,10.50
2022-10-11T00:04:29.846Z,9.17
2022-10-11T00:06:56.620Z,10.20
2022-10-11T00:09:23.346Z,9.97
2022-10-11T00:11:50.176Z,9.53
2022-10-11T00:14:16.930Z,11.43
2022-10-11T00:16:44.535Z,11.30
2022-10-11T00:19:11.673Z,11.27
2022-10-11T00:21:38.688Z,10.80
2022-10-11T00:24:06.518Z,11.10
2022-10-11T00:26:33.285Z,11.57
2022-10-11T00:29:00.086Z,10.67
2022-10-11T00:31:26.874Z,11.60
2022-10-11T00:33:54.600Z,11.90
2022-10-11T00:36:21.946Z,12.30
2022-10-11T00:38:48.959Z,11.57
2022-10-11T00:41:17.184Z,11.23
2022-10-11T00:43:44.383Z,12.57
2022-10-11T00:46:14.193Z,12.73
2022-10-11T00:48:45.115Z,11.10
2022-10-11T00:51:14.815Z,10.60
2022-10-11T00:53:42.560Z,11.47
2022-10-11T00:56:26.531Z,11.67
2022-10-11T00:58:55.383Z,11.20
2022-10-11T01:01:22.433Z,10.90
2022-10-11T01:03:49.334Z,10.73
2022-10-11T01:06:16.250Z,10.70
2022-10-11T01:08:43.320Z,12.20
2022-10-11T01:11:14.195Z,13.07
2022-10-11T01:13:59.506Z,12.23
2022-10-11T01:16:35.685Z,11.73
2022-10-11T01:19:34.150Z,11.70
2022-10-11T01:22:25.419Z,11.17
2022-10-11T01:25:13.262Z,11.67
2022-10-11T01:27:42.127Z,12.20
2022-10-11T01:30:35.109Z,12.33
2022-10-11T01:33:23.293Z,11.70
2022-10-11T01:36:02.325Z,12.70
2022-10-11T01:38:38.362Z,12.27
2022-10-11T01:41:30.066Z,13.10
2022-10-11T01:44:00.770Z,12.73
2022-10-11T01:46:29.457Z,13.53
2022-10-11T01:49:01.408Z,12.93
2022-10-11T01:51:35.876Z,12.87
2022-10-11T01:54:13.574Z,13.07
2022-10-11T01:57:24.164Z,12.87
2022-10-11T01:59:56.689Z,12.90
2022-10-11T02:02:51.300Z,13.23
2022-10-11T02:05:29.734Z,13.90
2022-10-11T02:08:26.648Z,12.90
2022-10-11T02:11:04.693Z,13.07
2022-10-11T02:13:38.680Z,13.27
2022-10-11T02:16:10.938Z,13.77
2022-10-11T02:18:42.940Z,13.60
2022-10-11T02:21:14.021Z,15.17
2022-10-11T02:23:45.523Z,14.17
2022-10-11T02:26:14.628Z,13.23
2022-10-11T02:28:44.263Z,13.80
2022-10-11T02:31:12.987Z,13.97
2022-10-11T02:33:49.959Z,14.77
2022-10-11T02:36:26.581Z,13.57
2022-10-11T02:38:59.510Z,13.43
2022-10-11T02:41:38.609Z,13.13
2022-10-11T02:44:19.936Z,13.13
2022-10-11T02:46:48.145Z,14.00
2022-10-11T02:49:16.283Z,14.83
2022-10-11T02:51:43.394Z,13.90
2022-10-11T02:54:10.215Z,13.83
2022-10-11T02:56:36.965Z,12.30
2022-10-11T02:59:03.807Z,13.27
2022-10-11T03:01:30.661Z,13.57
2022-10-11T03:03:57.441Z,13.67
2022-10-11T03:06:24.243Z,13.37
2022-10-11T03:08:51.128Z,13.20
2022-10-11T03:11:17.998Z,13.67
2022-10-11T03:13:44.737Z,13.50
2022-10-11T03:16:12.102Z,13.40
2022-10-11T03:18:39.111Z,13.43
2022-10-11T03:21:05.890Z,12.17
2022-10-11T03:23:32.623Z,13.00
2022-10-11T03:25:59.354Z,13.87
2022-10-11T03:28:27.145Z,13.47
2022-10-11T03:30:54.304Z,12.50
2022-10-11T03:33:21.084Z,12.83
2022-10-11T03:35:48.919Z,12.37
2022-10-11T03:38:18.458Z,12.23
2022-10-11T03:40:45.546Z,12.50
2022-10-11T03:43:12.534Z,11.67
2022-10-11T03:45:42.486Z,12.87
2022-10-11T03:48:10.044Z,12.60
2022-10-11T03:50:37.366Z,11.73
2022-10-11T03:53:05.099Z,11.63
2022-10-11T03:55:32.197Z,12.47
2022-10-11T03:57:59.017Z,14.00
2022-10-11T04:00:25.768Z,12.53
2022-10-11T04:02:52.639Z,13.40
2022-10-11T04:05:19.412Z,12.67
2022-10-11T04:07:46.189Z,12.97
2022-10-11T04:10:12.987Z,12.07
2022-10-11T04:12:39.793Z,12.67
2022-10-11T04:15:07.376Z,13.07
2022-10-11T04:17:34.415Z,13.30
2022-10-11T04:20:01.199Z,11.87
2022-10-11T04:22:27.990Z,11.70
2022-10-11T04:24:54.940Z,11.50
2022-10-11T04:27:22.002Z,11.10
2022-10-11T04:29:48.865Z,11.40
2022-10-11T04:32:15.654Z,12.30
2022-10-11T04:34:42.452Z,11.50
2022-10-11T04:37:09.272Z,10.70
2022-10-11T04:39:36.150Z,11.07
2022-10-11T04:42:02.979Z,10.77
2022-10-11T04:44:29.947Z,10.97
2022-10-11T04:46:56.945Z,11.53
2022-10-11T04:49:24.224Z,10.93
2022-10-11T04:51:51.031Z,12.07
2022-10-11T04:54:17.839Z,11.10
2022-10-11T04:56:44.563Z,11.03
2022-10-11T04:59:11.762Z,11.43
2022-10-11T05:01:38.697Z,11.77
2022-10-11T05:04:05.548Z,10.67
2022-10-11T05:06:32.380Z,12.83
2022-10-11T05:08:59.209Z,12.33
2022-10-11T05:11:26.049Z,12.13
2022-10-11T05:13:53.008Z,11.83
2022-10-11T05:16:19.817Z,13.23
2022-10-11T05:18:46.699Z,13.03
2022-10-11T05:21:28.092Z,12.73
2022-10-11T05:23:56.410Z,13.87
2022-10-11T05:26:26.111Z,13.27
2022-10-11T05:28:53.159Z,13.37
2022-10-11T05:31:20.357Z,12.90
2022-10-11T05:33:47.264Z,13.50
2022-10-11T05:36:14.287Z,14.13
2022-10-11T05:38:41.525Z,14.80
2022-10-11T05:41:11.396Z,14.00
2022-10-11T05:43:38.401Z,13.80
2022-10-11T05:46:05.673Z,14.57
2022-10-11T05:48:32.746Z,12.10
2022-10-11T05:51:05.293Z,14.60
2022-10-11T05:53:33.085Z,14.67
2022-10-11T05:56:00.214Z,16.07
2022-10-11T05:58:27.508Z,15.60
2022-10-11T06:00:57.968Z,14.43
2022-10-11T06:03:25.069Z,13.40
2022-10-11T06:05:56.543Z,14.73
2022-10-11T06:08:23.662Z,13.10
2022-10-11T06:10:50.523Z,13.20
2022-10-11T06:13:17.263Z,12.60
2022-10-11T06:15:44.052Z,12.73
2022-10-11T06:18:11.043Z,12.10
2022-10-11T06:20:37.839Z,12.10
2022-10-11T06:23:04.846Z,12.97
2022-10-11T06:25:31.785Z,13.00
2022-10-11T06:27:58.583Z,13.50
2022-10-11T06:30:25.450Z,14.07
2022-10-11T06:32:52.223Z,15.20
2022-10-11T06:35:19.020Z,14.93
2022-10-11T06:37:45.796Z,13.47
2022-10-11T06:40:12.729Z,14.90
2022-10-11T06:42:39.541Z,15.47
2022-10-11T06:45:06.940Z,14.83
2022-10-11T06:47:33.737Z,14.27
2022-10-11T06:50:00.565Z,13.00
2022-10-11T06:52:27.431Z,12.00
2022-10-11T06:54:54.191Z,12.03
2022-10-11T06:57:21.010Z,10.80
2022-10-11T06:59:47.899Z,11.13
2022-10-11T07:02:14.763Z,11.40
2022-10-11T07:04:41.575Z,11.07
2022-10-11T07:07:08.635Z,10.50
2022-10-11T07:09:35.448Z,9.63
2022-10-11T07:12:02.303Z,8.77
2022-10-11T07:14:29.133Z,9.23
2022-10-11T07:16:57.262Z,9.17
2022-10-11T07:19:24.187Z,9.13
2022-10-11T07:21:51.127Z,8.87
2022-10-11T07:24:17.952Z,8.70
2022-10-11T07:26:45.093Z,8.77
2022-10-11T07:29:12.634Z,8.57
2022-10-11T07:31:41.853Z,9.00
2022-10-11T07:34:09.255Z,8.60
2022-10-11T07:36:36.404Z,8.20
2022-10-11T07:39:05.468Z,8.87
2022-10-11T07:41:32.643Z,9.03
2022-10-11T07:43:59.552Z,9.37
2022-10-11T07:46:26.569Z,9.40
2022-10-11T07:48:53.490Z,9.70
2022-10-11T07:51:22.847Z,8.83
2022-10-11T07:53:56.315Z,9.60
2022-10-11T07:56:28.245Z,9.07
2022-10-11T07:59:00.785Z,9.27
2022-10-11T08:01:28.640Z,8.97
2022-10-11T08:03:59.359Z,9.40
2022-10-11T08:06:31.633Z,9.17
2022-10-11T08:09:00.419Z,8.13
2022-10-11T08:11:33.529Z,9.13
2022-10-11T08:14:02.077Z,9.80
2022-10-11T08:16:56.078Z,9.73
2022-10-11T08:19:23.006Z,11.27
2022-10-11T08:21:49.906Z,10.00
2022-10-11T08:24:20.755Z,9.33
2022-10-11T08:26:48.662Z,9.83
2022-10-11T08:29:15.546Z,10.00
2022-10-11T08:31:42.569Z,8.70
2022-10-11T08:34:09.374Z,9.47
2022-10-11T08:36:36.339Z,9.17
2022-10-11T08:39:04.570Z,9.13
2022-10-11T08:41:42.440Z,9.87
2022-10-11T08:45:09.558Z,10.23
2022-10-11T08:47:37.595Z,10.00
2022-10-11T08:50:07.404Z,10.27
2022-10-11T08:52:42.775Z,10.37
2022-10-11T08:55:25.462Z,10.13
2022-10-11T08:57:56.476Z,9.80
2022-10-11T09:00:25.148Z,10.63
2022-10-11T09:03:08.864Z,11.23
2022-10-11T09:05:49.631Z,11.77
2022-10-11T09:08:19.521Z,10.83
2022-10-11T09:10:57.897Z,11.33
2022-10-11T09:13:49.595Z,11.00
2022-10-11T09:16:44.344Z,11.27
2022-10-11T09:19:38.188Z,10.53
2022-10-11T09:22:38.226Z,10.47
2022-10-11T09:25:20.316Z,9.37
2022-10-11T09:28:03.267Z,10.07
2022-10-11T09:30:31.521Z,10.30
2022-10-11T09:33:24.592Z,8.67
2022-10-11T09:35:53.232Z,9.57
2022-10-11T09:38:38.346Z,9.07
2022-10-11T09:41:11.788Z,9.23
2022-10-11T09:43:39.034Z,9.20
2022-10-11T09:46:36.486Z,9.00
2022-10-11T09:49:07.850Z,8.80
2022-10-11T09:51:34.690Z,8.77
2022-10-11T09:54:05.175Z,8.83
2022-10-11T09:56:34.035Z,9.07
2022-10-11T09:59:13.946Z,9.90
2022-10-11T10:01:40.991Z,10.10
2022-10-11T10:04:14.246Z,9.40
2022-10-11T10:06:41.115Z,9.17
2022-10-11T10:09:30.234Z,9.23
2022-10-11T10:11:58.319Z,9.30
2022-10-11T10:14:29.007Z,9.17
2022-10-11T10:17:08.594Z,8.97
2022-10-11T10:19:49.406Z,9.40
2022-10-11T10:22:29.058Z,8.07
2022-10-11T10:24:56.944Z,8.37
2022-10-11T10:27:29.674Z,8.57
2022-10-11T10:30:08.314Z,8.47
2022-10-11T10:32:47.623Z,8.70
2022-10-11T10:35:41.454Z,7.80
2022-10-11T10:38:29.530Z,8.40
2022-10-11T10:41:00.853Z,8.10
2022-10-11T10:43:39.711Z,7.93
2022-10-11T10:46:18.021Z,9.10
2022-10-11T10:52:05.978Z,9.27
2022-10-11T10:55:15.755Z,7.83
2022-10-11T10:58:07.169Z,8.10
2022-10-11T11:00:42.482Z,8.47
2022-10-11T11:03:35.030Z,8.50
2022-10-11T11:06:09.178Z,8.40
2022-10-11T11:08:56.600Z,7.97
2022-10-11T11:12:02.672Z,8.37
2022-10-11T11:15:04.319Z,8.70
2022-10-11T11:17:51.984Z,20.90
2022-10-11T11:20:27.910Z,9.10
2022-10-11T11:23:07.551Z,8.70
2022-10-11T11:25:58.860Z,8.93
2022-10-11T11:29:14.541Z,8.93
2022-10-11T11:31:49.861Z,9.27
2022-10-11T11:34:20.668Z,9.00
2022-10-11T11:37:03.708Z,8.53
2022-10-11T11:39:32.933Z,8.30
2022-10-11T11:42:09.842Z,7.90
2022-10-11T11:44:46.916Z,7.40
2022-10-11T11:47:24.400Z,7.70
2022-10-11T11:50:00.031Z,8.13
2022-10-11T11:52:40.891Z,7.10
2022-10-11T11:55:14.275Z,6.87
2022-10-11T11:57:52.865Z,5.77
2022-10-11T12:00:22.324Z,5.77
2022-10-11T12:02:49.055Z,4.50
2022-10-11T12:05:20.246Z,5.63
2022-10-11T12:08:28.267Z,4.70
2022-10-11T12:10:59.776Z,4.43
2022-10-11T12:13:34.203Z,4.97
2022-10-11T12:16:12.897Z,4.47
2022-10-11T12:18:50.315Z,5.40
2022-10-11T12:21:19.856Z,4.53
2022-10-11T12:23:49.702Z,4.77
2022-10-11T12:26:28.772Z,4.50
2022-10-11T12:29:18.322Z,4.30
2022-10-11T12:31:50.825Z,3.87
2022-10-11T12:34:33.272Z,5.07
2022-10-11T12:37:20.701Z,3.63
2022-10-11T12:39:50.455Z,2.70
2022-10-11T12:42:31.445Z,3.23
2022-10-11T12:45:13.859Z,2.80
2022-10-11T12:48:03.103Z,2.73
2022-10-11T12:50:54.423Z,3.17
2022-10-11T12:54:21.925Z,2.87
2022-10-11T12:57:08.399Z,3.13
2022-10-11T12:59:45.791Z,2.93
2022-10-11T13:02:50.940Z,2.47
2022-10-11T13:05:20.602Z,2.13
2022-10-11T13:07:48.031Z,2.47
2022-10-11T13:10:18.057Z,2.43
2022-10-11T13:12:47.757Z,2.67
2022-10-11T13:15:22.417Z,2.40
2022-10-11T13:17:50.354Z,3.07
2022-10-11T13:20:17.419Z,2.20
2022-10-11T13:22:47.548Z,2.60
2022-10-11T13:25:29.339Z,2.33
2022-10-11T13:27:58.521Z,2.57
2022-10-11T13:30:35.847Z,1.93
2022-10-11T13:33:08.599Z,2.40
2022-10-11T13:35:37.370Z,2.00
2022-10-11T13:38:09.222Z,2.23
2022-10-11T13:40:37.534Z,2.10
2022-10-11T13:43:05.813Z,2.03
2022-10-11T13:45:35.829Z,2.00
2022-10-11T13:48:03.166Z,2.10
2022-10-11T13:50:34.728Z,2.00
2022-10-11T13:53:11.864Z,1.80
2022-10-11T13:55:55.190Z,2.10
2022-10-11T13:58:30.071Z,2.33
2022-10-11T14:01:17.202Z,2.07
2022-10-11T14:03:49.203Z,2.20
2022-10-11T14:06:16.089Z,2.50
2022-10-11T14:08:49.078Z,2.20
2022-10-11T14:11:31.668Z,1.70
2022-10-11T14:13:58.690Z,2.30
2022-10-11T14:16:25.658Z,1.90
2022-10-11T14:19:12.702Z,2.40
2022-10-11T14:21:45.847Z,2.10
2022-10-11T14:24:14.564Z,2.30
2022-10-11T14:26:46.610Z,2.10
2022-10-11T14:29:26.485Z,2.07
2022-10-11T14:31:59.179Z,2.30
2022-10-11T14:34:27.408Z,2.20
2022-10-11T14:36:54.390Z,2.30
2022-10-11T14:39:23.624Z,2.50
2022-10-11T14:41:52.050Z,2.07
2022-10-11T14:44:20.535Z,2.03
2022-10-11T14:46:48.828Z,2.10
2022-10-11T14:49:21.583Z,2.37
2022-10-11T14:51:50.113Z,1.83
2022-10-11T14:54:22.648Z,1.77
2022-10-11T14:56:51.297Z,2.03
2022-10-11T14:59:20.881Z,2.00
2022-10-11T15:01:51.837Z,2.53
2022-10-11T15:04:19.954Z,2.60
2022-10-11T15:06:46.883Z,2.77
2022-10-11T15:09:14.067Z,2.10
2022-10-11T15:11:40.877Z,2.20
2022-10-11T15:14:07.844Z,2.07
2022-10-11T15:16:35.495Z,2.20
2022-10-11T15:19:02.279Z,2.13
2022-10-11T15:21:29.802Z,2.30
2022-10-11T15:23:57.139Z,2.03
2022-10-11T15:26:26.765Z,2.17
2022-10-11T15:28:56.106Z,2.40
2022-10-11T15:31:23.875Z,2.07
2022-10-11T15:33:50.898Z,2.67
2022-10-11T15:36:20.914Z,2.20
2022-10-11T15:38:48.593Z,2.23
2022-10-11T15:41:16.933Z,2.40
2022-10-11T15:43:45.879Z,2.47
2022-10-11T15:46:15.932Z,2.10
2022-10-11T15:48:43.303Z,2.47
2022-10-11T15:51:10.158Z,2.23
2022-10-11T15:53:37.122Z,2.87
2022-10-11T15:56:07.283Z,2.37
2022-10-11T15:58:37.601Z,2.50
2022-10-11T16:01:11.722Z,2.70
2022-10-11T16:03:38.831Z,2.53
2022-10-11T16:06:06.081Z,2.43
2022-10-11T16:08:34.397Z,2.57
2022-10-11T16:11:01.736Z,2.60
2022-10-11T16:13:28.502Z,4.37
2022-10-11T16:15:55.713Z,3.17
2022-10-11T16:18:22.836Z,3.13
2022-10-11T16:20:51.831Z,5.53
2022-10-11T16:23:20.286Z,4.30
2022-10-11T16:26:00.013Z,3.60
2022-10-11T16:28:27.813Z,4.03
2022-10-11T16:30:55.294Z,3.57
2022-10-11T16:33:22.669Z,3.23
2022-10-11T16:35:49.759Z,3.30
2022-10-11T16:38:16.522Z,3.10
2022-10-11T16:40:43.446Z,3.43
2022-10-11T16:43:10.505Z,3.00
2022-10-11T16:45:37.881Z,2.93
2022-10-11T16:48:05.332Z,3.57
2022-10-11T16:50:36.866Z,6.67
2022-10-11T16:53:06.115Z,3.80
2022-10-11T16:55:32.953Z,4.03
2022-10-11T16:57:59.701Z,3.70
2022-10-11T17:00:26.555Z,3.80
2022-10-11T17:02:53.428Z,3.70
2022-10-11T17:05:20.203Z,3.83
2022-10-11T17:07:47.237Z,3.20
2022-10-11T17:10:14.028Z,3.57
2022-10-11T17:12:40.727Z,3.60
2022-10-11T17:15:10.680Z,3.90
2022-10-11T17:17:37.617Z,4.43
2022-10-11T17:20:05.106Z,3.90
2022-10-11T17:22:31.976Z,3.70
2022-10-11T17:25:01.505Z,4.83
2022-10-11T17:27:28.658Z,3.83
2022-10-11T17:29:56.123Z,3.67
2022-10-11T17:32:24.088Z,4.30
2022-10-11T17:34:51.217Z,4.13
2022-10-11T17:37:18.332Z,3.73
2022-10-11T17:39:45.232Z,3.80
2022-10-11T17:42:12.086Z,3.90
2022-10-11T17:44:38.840Z,10.17
2022-10-11T17:47:05.872Z,6.37
2022-10-11T17:49:32.808Z,5.07
2022-10-11T17:51:59.671Z,4.40
2022-10-11T17:54:26.479Z,4.07
2022-10-11T17:56:54.547Z,4.40
2022-10-11T17:59:22.427Z,3.63
2022-10-11T18:01:50.321Z,4.00
2022-10-11T18:04:19.177Z,4.10
2022-10-11T18:06:47.790Z,3.93
2022-10-11T18:09:17.452Z,4.37
2022-10-11T18:11:45.087Z,4.93
2022-10-11T18:14:12.355Z,4.67
2022-10-11T18:16:39.839Z,4.07
2022-10-11T18:19:10.068Z,4.83
2022-10-11T18:21:37.939Z,3.80
2022-10-11T18:24:16.579Z,4.13
2022-10-11T18:26:45.457Z,4.70
2022-10-11T18:29:12.953Z,4.90
2022-10-11T18:31:43.509Z,3.70
2022-10-11T18:34:13.124Z,4.67
2022-10-11T18:36:40.317Z,4.97
2022-10-11T18:39:09.771Z,4.60
2022-10-11T18:41:39.042Z,4.23
2022-10-11T18:44:07.678Z,4.83
2022-10-11T18:46:35.593Z,4.23
2022-10-11T18:49:02.533Z,4.03
2022-10-11T18:51:34.720Z,4.60
2022-10-11T18:54:02.585Z,4.33
2022-10-11T18:56:31.113Z,4.73
2022-10-11T18:58:59.347Z,4.30
2022-10-11T19:01:32.399Z,4.70
2022-10-11T19:04:01.630Z,4.50
2022-10-11T19:06:31.907Z,3.90
2022-10-11T19:09:03.734Z,4.70
2022-10-11T19:11:31.187Z,4.80
2022-10-11T19:14:11.346Z,4.73
2022-10-11T19:16:42.072Z,4.57
2022-10-11T19:19:10.470Z,4.90
2022-10-11T19:21:37.870Z,4.07
2022-10-11T19:24:05.665Z,4.33
2022-10-11T19:26:36.341Z,4.63
2022-10-11T19:29:07.037Z,4.57
2022-10-11T19:31:35.980Z,3.97
2022-10-11T19:34:03.858Z,4.27
2022-10-11T19:36:36.482Z,4.37
2022-10-11T19:39:04.522Z,4.40
2022-10-11T19:41:31.631Z,3.57
2022-10-11T19:44:01.600Z,4.10
2022-10-11T19:49:17.829Z,4.93
2022-10-11T19:51:45.131Z,6.83
2022-10-11T19:54:13.760Z,9.00
2022-10-11T19:56:41.260Z,5.27
2022-10-11T19:59:08.698Z,4.90
2022-10-11T20:01:38.937Z,4.83
2022-10-11T20:04:08.381Z,4.70
2022-10-11T20:06:38.952Z,4.80
2022-10-11T20:11:55.769Z,4.83
2022-10-11T20:14:23.299Z,4.90
2022-10-11T20:16:52.129Z,6.43
2022-10-11T20:19:19.150Z,5.30
2022-10-11T20:21:46.480Z,5.33
2022-10-11T20:24:13.371Z,5.37
2022-10-11T20:26:40.311Z,5.57
2022-10-11T20:29:07.406Z,5.80
2022-10-11T20:31:38.495Z,5.37
2022-10-11T20:34:07.448Z,5.60
2022-10-11T20:36:36.127Z,5.70
2022-10-11T20:39:04.467Z,5.20
2022-10-11T20:41:34.351Z,6.27
2022-10-11T20:44:02.281Z,7.70
2022-10-11T20:46:31.690Z,6.73
2022-10-11T20:49:04.873Z,6.40
2022-10-11T20:51:33.505Z,6.33
2022-10-11T20:54:02.251Z,4.80
2022-10-11T20:56:29.956Z,5.17
2022-10-11T20:58:57.806Z,4.90
2022-10-11T21:01:37.173Z,4.30
2022-10-11T21:04:05.758Z,4.73
2022-10-11T21:06:33.611Z,4.70
2022-10-11T21:09:01.091Z,5.10
2022-10-11T21:11:29.135Z,4.70
2022-10-11T21:13:58.106Z,4.67
2022-10-11T21:16:25.201Z,5.27
2022-10-11T21:18:53.668Z,5.10
2022-10-11T21:21:21.702Z,5.43
2022-10-11T21:23:48.544Z,5.43
2022-10-11T21:26:18.523Z,5.67
2022-10-11T21:28:46.819Z,10.70
2022-10-11T21:31:16.242Z,7.80
2022-10-11T21:33:44.393Z,6.00
2022-10-11T21:36:22.487Z,6.00
2022-10-11T21:38:50.542Z,5.77
2022-10-11T21:41:20.543Z,5.60
2022-10-11T21:43:47.948Z,5.60
2022-10-11T21:46:21.520Z,4.40
2022-10-11T21:48:52.108Z,4.40
2022-10-11T21:51:27.736Z,4.73
2022-10-11T21:53:56.149Z,4.50
2022-10-11T21:56:23.404Z,4.13
2022-10-11T21:58:51.226Z,4.67
2022-10-11T22:01:19.441Z,4.30
2022-10-11T22:03:46.857Z,5.30
2022-10-11T22:06:14.139Z,4.80
2022-10-11T22:08:41.884Z,4.50
2022-10-11T22:11:09.991Z,4.13
2022-10-11T22:13:36.915Z,4.60
2022-10-11T22:16:05.865Z,3.90
2022-10-11T22:18:33.782Z,3.90
2022-10-11T22:21:09.769Z,3.80
2022-10-11T22:23:36.959Z,4.17
2022-10-11T22:26:14.576Z,4.07
2022-10-11T22:28:41.607Z,3.57
2022-10-11T22:31:10.308Z,4.27
2022-10-11T22:33:37.270Z,4.23
2022-10-11T22:36:08.769Z,4.10
2022-10-11T22:38:37.206Z,5.50
2022-10-11T22:41:04.096Z,8.03
2022-10-11T22:43:31.469Z,4.73
2022-10-11T22:45:58.326Z,4.50
2022-10-11T22:48:25.092Z,4.13
2022-10-11T22:50:51.958Z,4.57
2022-10-11T22:53:18.922Z,3.90
2022-10-11T22:55:45.756Z,4.03
2022-10-11T22:58:12.528Z,4.13
2022-10-11T23:00:39.470Z,4.53
2022-10-11T23:03:09.078Z,9.63
2022-10-11T23:05:35.914Z,8.37
2022-10-11T23:08:02.860Z,8.30
2022-10-11T23:10:29.614Z,14.03
2022-10-11T23:12:56.370Z,13.57
2022-10-11T23:15:23.198Z,12.80
2022-10-11T23:17:50.012Z,12.33
2022-10-11T23:20:16.823Z,12.43
2022-10-11T23:22:43.649Z,13.03
2022-10-11T23:25:10.409Z,13.23
2022-10-11T23:27:37.419Z,12.90
2022-10-11T23:30:05.192Z,12.83
2022-10-11T23:32:32.098Z,13.37
2022-10-11T23:34:58.922Z,11.83
2022-10-11T23:37:25.709Z,11.70
2022-10-11T23:39:52.482Z,12.43
2022-10-11T23:42:19.213Z,11.07
2022-10-11T23:44:46.112Z,10.83
2022-10-11T23:47:12.886Z,10.23
2022-10-11T23:49:39.710Z,11.33
2022-10-11T23:52:06.483Z,11.37
2022-10-11T23:54:33.331Z,11.17
2022-10-11T23:57:00.127Z,10.97
2022-10-11T23:59:26.840Z,10.23
